Time;durP1;ratioP1;P1;durP2;ratioP2;P2;SDS_P1;SDS_P2;PMS_P1;PMS_P2;Temp;Humidity;BMP_temperature;BMP_pressure;BME280_temperature;BME280_humidity;BME280_pressure;Samples;Min_cycle;Max_cycle;Signal;HPM_P1;HPM_P2
2023/06/19 00:00:55;;;;;;;6.95;2.95;;;;;;;19.98;54.37;101054.41;5067731;28;20903;-76
2023/06/19 00:03:21;;;;;;;7.47;3.07;;;;;;;20.04;54.22;101060.75;5060565;28;20392;-76
2023/06/19 00:05:46;;;;;;;6.20;3.23;;;;;;;20.03;54.19;101056.44;5051616;28;20386;-76
2023/06/19 00:08:12;;;;;;;9.27;3.20;;;;;;;20.05;54.18;101049.78;5062005;28;20418;-76
2023/06/19 00:10:37;;;;;;;5.32;3.10;;;;;;;19.99;54.10;101045.31;5063335;28;20395;-76
2023/06/19 00:13:03;;;;;;;8.07;3.17;;;;;;;20.05;54.15;101041.69;5077333;28;20767;-75
2023/06/19 00:15:29;;;;;;;5.77;3.20;;;;;;;20.00;54.04;101029.97;5081661;28;20399;-75
2023/06/19 00:17:56;;;;;;;5.78;3.10;;;;;;;19.98;54.18;101032.88;5069619;28;20410;-76
2023/06/19 00:20:23;;;;;;;6.95;3.05;;;;;;;19.95;54.16;101030.66;5065711;28;20435;-76
2023/06/19 00:22:51;;;;;;;6.03;3.10;;;;;;;19.95;54.01;101027.13;5043637;28;20418;-75
2023/06/19 00:25:20;;;;;;;5.85;3.17;;;;;;;19.85;54.23;101023.09;5063633;28;20645;-75
2023/06/19 00:27:48;;;;;;;7.85;3.15;;;;;;;19.89;54.36;101028.84;5060324;28;20435;-75
2023/06/19 00:30:15;;;;;;;5.30;3.13;;;;;;;19.89;54.17;101017.28;5063405;28;20407;-75
2023/06/19 00:32:46;;;;;;;6.10;3.20;;;;;;;19.88;54.05;101019.16;5045610;28;20387;-75
2023/06/19 00:35:16;;;;;;;6.38;3.22;;;;;;;19.91;54.12;101034.00;5059285;28;20401;-75
2023/06/19 00:37:44;;;;;;;7.93;3.30;;;;;;;19.84;54.24;101028.69;5059377;28;20810;-75
2023/06/19 00:40:19;;;;;;;7.88;3.45;;;;;;;19.81;54.23;101034.53;5065514;28;20961;-76
2023/06/19 00:42:45;;;;;;;6.30;3.03;;;;;;;19.82;54.27;101042.38;5062434;28;20399;-76
2023/06/19 00:45:10;;;;;;;8.10;3.40;;;;;;;19.77;54.44;101030.63;5063568;28;20391;-76
2023/06/19 00:47:36;;;;;;;4.30;3.20;;;;;;;19.74;54.52;101034.59;5058900;28;20698;-76
2023/06/19 00:50:02;;;;;;;7.63;3.22;;;;;;;19.77;54.33;101033.31;5066098;28;20446;-76
2023/06/19 00:52:28;;;;;;;5.22;2.92;;;;;;;19.80;54.09;101028.31;5040440;28;20392;-76
2023/06/19 00:54:53;;;;;;;5.27;3.03;;;;;;;19.76;54.39;101037.91;5066132;28;20791;-75
2023/06/19 00:57:19;;;;;;;6.00;3.35;;;;;;;19.75;54.22;101038.94;5059858;28;20449;-75
2023/06/19 00:59:45;;;;;;;7.77;3.47;;;;;;;19.68;54.51;101036.28;5060927;28;20393;-76
2023/06/19 01:02:11;;;;;;;5.78;3.10;;;;;;;19.61;54.51;101037.41;5062572;28;20391;-76
2023/06/19 01:04:36;;;;;;;7.07;3.35;;;;;;;19.59;54.62;101028.72;5061485;28;20460;-75
2023/06/19 01:07:17;;;;;;;7.10;3.23;;;;;;;19.56;54.49;101031.88;5063922;28;20398;-75
2023/06/19 01:09:51;;;;;;;6.20;3.47;;;;;;;19.59;54.42;101037.63;5051299;28;20507;-75
2023/06/19 01:12:23;;;;;;;6.40;3.40;;;;;;;19.59;54.30;101037.63;5065171;28;20402;-75
2023/06/19 01:14:58;;;;;;;4.57;3.00;;;;;;;19.62;54.23;101042.53;5063734;28;20401;-75
2023/06/19 01:17:27;;;;;;;5.30;3.00;;;;;;;19.61;54.28;101045.47;5063578;28;20417;-75
2023/06/19 01:19:53;;;;;;;6.70;3.15;;;;;;;19.55;54.19;101039.09;5061826;28;20562;-75
2023/06/19 01:22:28;;;;;;;5.35;2.90;;;;;;;19.57;54.40;101037.03;5039602;28;20473;-75
2023/06/19 01:24:53;;;;;;;7.68;3.55;;;;;;;19.60;54.25;101044.63;5061803;28;20391;-75
2023/06/19 01:27:19;;;;;;;8.85;3.05;;;;;;;19.57;54.22;101047.78;5062352;28;20495;-74
2023/06/19 01:29:45;;;;;;;6.45;3.40;;;;;;;19.55;54.41;101049.03;5063181;28;20755;-74
2023/06/19 01:32:15;;;;;;;4.93;2.83;;;;;;;19.49;54.31;101043.50;5056730;28;20404;-75
2023/06/19 01:34:42;;;;;;;5.47;3.00;;;;;;;19.52;54.37;101049.47;5067506;28;20390;-75
2023/06/19 01:37:10;;;;;;;6.45;2.92;;;;;;;19.47;54.33;101052.84;5063119;28;20469;-74
2023/06/19 01:39:37;;;;;;;7.45;3.33;;;;;;;19.47;54.48;101060.91;5058210;28;20411;-76
2023/06/19 01:42:04;;;;;;;6.55;3.20;;;;;;;19.43;54.56;101057.84;5060627;28;20384;-76
2023/06/19 01:44:29;;;;;;;4.78;2.92;;;;;;;19.38;54.61;101049.59;5039288;28;20474;-76
2023/06/19 01:46:55;;;;;;;5.80;3.10;;;;;;;19.36;54.74;101050.88;5061898;28;20478;-76
2023/06/19 01:49:20;;;;;;;6.22;3.17;;;;;;;19.39;54.70;101061.16;5057310;28;20419;-76
2023/06/19 01:51:46;;;;;;;6.77;3.13;;;;;;;19.43;54.73;101052.47;5067380;28;20414;-76
2023/06/19 01:54:11;;;;;;;7.60;3.10;;;;;;;19.49;54.38;101042.69;5061414;28;20844;-76
2023/06/19 01:56:37;;;;;;;4.72;3.00;;;;;;;19.54;54.28;101045.53;5058118;28;20887;-76
2023/06/19 01:59:03;;;;;;;4.93;3.05;;;;;;;19.49;54.32;101045.38;5058457;28;20391;-76
2023/06/19 02:01:28;;;;;;;8.03;3.10;;;;;;;19.52;54.21;101046.78;5061281;28;20391;-76
2023/06/19 02:03:54;;;;;;;5.43;3.10;;;;;;;19.53;54.06;101043.06;5055835;28;20409;-76
2023/06/19 02:06:21;;;;;;;6.80;3.17;;;;;;;19.50;54.04;101047.03;5064361;28;20390;-76
2023/06/19 02:08:47;;;;;;;7.70;3.30;;;;;;;19.51;54.11;101051.34;5055822;28;20408;-76
2023/06/19 02:11:13;;;;;;;4.57;2.78;;;;;;;19.42;54.12;101053.50;5056146;28;20453;-76
2023/06/19 02:13:39;;;;;;;6.60;3.10;;;;;;;19.29;54.63;101046.38;5058527;28;20402;-76
2023/06/19 02:16:04;;;;;;;5.90;2.93;;;;;;;19.25;54.55;101047.84;5066761;28;20705;-76
2023/06/19 02:18:30;;;;;;;5.40;3.10;;;;;;;19.29;54.72;101048.25;5050879;28;20425;-76
2023/06/19 02:20:55;;;;;;;5.67;3.00;;;;;;;19.31;54.56;101058.78;5061294;28;20426;-75
2023/06/19 02:23:20;;;;;;;4.40;3.47;;;;;;;19.27;54.55;101061.91;5065036;28;20825;-76
2023/06/19 02:25:46;;;;;;;6.03;3.13;;;;;;;19.31;54.61;101064.97;5061342;28;20397;-76
2023/06/19 02:28:11;;;;;;;4.70;3.13;;;;;;;19.27;54.70;101069.97;5058995;28;20494;-76
2023/06/19 02:30:37;;;;;;;6.33;3.30;;;;;;;19.24;54.58;101073.06;5043641;28;20407;-76
2023/06/19 02:33:02;;;;;;;4.93;3.00;;;;;;;19.18;54.61;101071.28;5043248;28;20884;-76
2023/06/19 02:35:28;;;;;;;7.20;3.30;;;;;;;19.22;54.77;101083.22;5061401;28;20936;-76
2023/06/19 02:37:53;;;;;;;6.13;3.30;;;;;;;19.24;54.63;101075.75;5053870;28;20427;-76
2023/06/19 02:40:19;;;;;;;7.87;3.10;;;;;;;19.29;54.39;101077.81;5059474;28;20401;-76
2023/06/19 02:42:44;;;;;;;6.30;3.13;;;;;;;19.26;54.49;101084.44;5054874;28;20782;-76
2023/06/19 02:45:10;;;;;;;8.88;3.13;;;;;;;19.29;54.25;101075.94;5062540;28;20848;-76
2023/06/19 02:47:36;;;;;;;7.93;3.20;;;;;;;19.31;54.26;101081.09;5064635;28;20403;-76
2023/06/19 02:50:03;;;;;;;5.18;2.95;;;;;;;19.31;54.32;101085.66;5070380;28;20497;-76
2023/06/19 02:52:29;;;;;;;6.30;3.40;;;;;;;19.26;54.42;101088.97;5067224;28;20402;-76
2023/06/19 02:54:55;;;;;;;8.40;3.20;;;;;;;19.26;54.21;101081.75;5056181;28;20387;-76
2023/06/19 02:57:20;;;;;;;5.83;3.13;;;;;;;19.19;54.37;101083.66;5071437;28;20881;-76
2023/06/19 02:59:46;;;;;;;6.75;3.25;;;;;;;19.11;54.59;101083.94;5061560;28;20428;-75
2023/06/19 03:02:12;;;;;;;5.77;3.20;;;;;;;19.18;54.57;101089.28;5041595;28;20479;-76
2023/06/19 03:04:37;;;;;;;9.55;3.30;;;;;;;19.19;54.50;101083.66;5065417;28;20398;-76
2023/06/19 03:07:03;;;;;;;7.63;3.30;;;;;;;19.25;54.36;101088.16;5060924;28;20400;-75
2023/06/19 03:09:28;;;;;;;5.10;3.20;;;;;;;19.23;54.55;101084.88;5062154;28;20429;-75
2023/06/19 03:11:54;;;;;;;5.20;3.00;;;;;;;19.21;54.49;101078.06;5073559;28;20387;-75
2023/06/19 03:14:20;;;;;;;4.75;3.08;;;;;;;19.25;54.38;101079.28;5072661;28;20379;-75
2023/06/19 03:16:46;;;;;;;8.70;3.40;;;;;;;19.30;54.24;101079.44;5072379;28;20488;-75
2023/06/19 03:19:12;;;;;;;7.53;3.45;;;;;;;19.37;54.08;101082.91;5061538;28;20403;-75
2023/06/19 03:21:37;;;;;;;5.70;2.90;;;;;;;19.42;53.98;101088.44;5048951;28;20417;-75
2023/06/19 03:24:04;;;;;;;4.63;3.25;;;;;;;19.52;53.96;101097.88;5066744;28;20845;-75
2023/06/19 03:26:29;;;;;;;6.40;2.78;;;;;;;19.54;53.79;101090.44;5054776;28;20435;-75
2023/06/19 03:28:55;;;;;;;6.57;3.20;;;;;;;19.58;53.81;101086.25;5060181;28;20443;-75
2023/06/19 03:31:20;;;;;;;4.75;3.00;;;;;;;19.64;53.64;101085.34;5063785;28;20437;-75
2023/06/19 03:33:46;;;;;;;5.57;3.43;;;;;;;19.73;53.24;101085.91;5057683;28;20400;-75
2023/06/19 03:36:11;;;;;;;7.25;3.47;;;;;;;19.80;53.15;101084.81;5049707;28;20736;-75
2023/06/19 03:38:37;;;;;;;5.17;3.10;;;;;;;19.84;53.12;101085.19;5065410;28;20399;-75
2023/06/19 03:41:02;;;;;;;5.80;3.30;;;;;;;19.90;52.81;101073.56;5063759;28;20402;-75
2023/06/19 03:43:28;;;;;;;6.70;3.00;;;;;;;20.03;52.78;101084.16;5066066;28;20820;-75
2023/06/19 03:45:53;;;;;;;4.53;3.10;;;;;;;20.15;52.56;101086.09;5043456;28;20430;-75
2023/06/19 03:48:19;;;;;;;5.20;3.30;;;;;;;20.21;52.24;101086.03;5066133;28;20415;-75
2023/06/19 03:50:44;;;;;;;7.20;3.17;;;;;;;20.22;52.20;101076.09;5066570;28;20396;-74
2023/06/19 03:53:10;;;;;;;6.43;3.43;;;;;;;20.33;52.08;101088.81;5066522;28;20386;-75
2023/06/19 03:55:35;;;;;;;6.82;2.90;;;;;;;20.37;51.91;101076.53;5065995;28;20392;-74
2023/06/19 03:58:01;;;;;;;16.80;3.73;;;;;;;20.50;51.77;101064.78;5071857;28;20798;-75
2023/06/19 04:00:27;;;;;;;7.47;4.03;;;;;;;20.62;51.38;101068.38;5065546;28;20967;-76
2023/06/19 04:02:52;;;;;;;5.97;3.10;;;;;;;20.68;51.39;101073.91;5069015;28;20775;-75
2023/06/19 04:05:19;;;;;;;5.78;3.33;;;;;;;20.74;51.25;101071.13;5070411;28;20775;-75
2023/06/19 04:07:45;;;;;;;5.50;3.50;;;;;;;20.85;51.11;101072.22;5066832;28;20889;-75
2023/06/19 04:10:11;;;;;;;5.93;3.42;;;;;;;20.86;51.12;101068.44;5065594;28;20405;-75
2023/06/19 04:12:37;;;;;;;5.68;2.95;;;;;;;20.88;50.90;101076.31;5066342;28;20416;-75
2023/06/19 04:15:03;;;;;;;11.35;3.20;;;;;;;21.02;50.89;101077.75;5065741;28;20395;-76
2023/06/19 04:17:29;;;;;;;5.88;3.17;;;;;;;21.15;50.66;101074.03;5051437;28;20414;-76
2023/06/19 04:19:54;;;;;;;6.13;3.20;;;;;;;21.25;50.67;101076.97;5067985;28;20383;-75
2023/06/19 04:22:19;;;;;;;9.45;3.35;;;;;;;21.31;50.45;101073.34;5072402;28;20378;-75
2023/06/19 04:24:45;;;;;;;4.00;2.90;;;;;;;21.44;50.23;101075.00;5070489;28;20427;-76
2023/06/19 04:27:10;;;;;;;5.27;2.90;;;;;;;21.56;50.15;101093.94;5071251;28;20731;-76
2023/06/19 04:29:36;;;;;;;4.65;3.00;;;;;;;21.64;50.13;101090.88;5068130;28;20419;-76
2023/06/19 04:32:03;;;;;;;7.15;3.03;;;;;;;21.72;49.97;101081.63;5064381;28;20856;-75
2023/06/19 04:34:31;;;;;;;6.97;3.05;;;;;;;21.74;50.04;101085.72;5068916;28;20405;-75
2023/06/19 04:36:58;;;;;;;5.20;2.92;;;;;;;21.75;49.72;101086.53;5052897;28;20818;-76
2023/06/19 04:39:24;;;;;;;7.10;3.00;;;;;;;21.82;49.85;101089.09;5066766;28;20404;-75
2023/06/19 04:41:49;;;;;;;7.90;2.88;;;;;;;21.83;49.60;101085.38;5065725;28;20416;-76
2023/06/19 04:44:15;;;;;;;8.82;3.40;;;;;;;21.96;49.80;101082.41;5067883;28;20434;-75
2023/06/19 04:46:41;;;;;;;9.20;3.97;;;;;;;22.07;49.47;101083.44;5069932;28;20395;-76
2023/06/19 04:49:07;;;;;;;10.73;4.13;;;;;;;22.18;49.34;101082.59;5062184;28;20535;-76
2023/06/19 04:51:32;;;;;;;8.43;3.87;;;;;;;22.27;49.32;101094.72;5060935;28;20399;-76
2023/06/19 04:53:59;;;;;;;8.63;3.88;;;;;;;22.31;48.98;101087.78;5067731;28;20395;-77
2023/06/19 04:56:24;;;;;;;8.80;3.63;;;;;;;22.32;48.97;101084.00;5025101;28;20433;-75
2023/06/19 04:58:51;;;;;;;8.70;3.95;;;;;;;22.34;49.25;101091.88;5049790;28;20396;-77
2023/06/19 05:01:17;;;;;;;9.05;4.22;;;;;;;22.46;48.60;101091.84;5026290;28;20397;-76
2023/06/19 05:03:47;;;;;;;7.47;3.63;;;;;;;22.62;48.43;101085.69;5041709;28;20413;-75
2023/06/19 05:06:13;;;;;;;8.23;3.60;;;;;;;22.93;48.70;101091.63;5037772;28;20429;-75
2023/06/19 05:08:38;;;;;;;8.80;3.53;;;;;;;22.97;48.15;101083.88;5041649;28;20412;-76
2023/06/19 05:11:04;;;;;;;7.72;3.30;;;;;;;23.08;48.08;101086.53;5035325;28;20412;-76
2023/06/19 05:13:29;;;;;;;6.93;3.40;;;;;;;23.12;47.45;101089.56;5045871;28;20430;-76
2023/06/19 05:15:56;;;;;;;5.20;2.97;;;;;;;23.23;47.36;101085.97;5047935;28;20405;-76
2023/06/19 05:18:22;;;;;;;6.78;3.25;;;;;;;23.34;47.42;101092.38;5041295;28;20404;-77
2023/06/19 05:20:47;;;;;;;5.90;3.25;;;;;;;23.57;47.14;101093.25;5036638;28;20404;-76
2023/06/19 05:23:13;;;;;;;4.13;2.77;;;;;;;23.71;46.35;101088.31;5037025;28;20465;-76
2023/06/19 05:25:38;;;;;;;7.53;3.23;;;;;;;23.65;46.48;101093.66;5058377;28;21125;-76
2023/06/19 05:28:05;;;;;;;7.55;3.30;;;;;;;23.82;46.71;101100.94;5053473;28;20398;-76
2023/06/19 05:30:30;;;;;;;6.88;3.05;;;;;;;23.89;46.33;101098.06;5038363;28;20414;-76
2023/06/19 05:32:56;;;;;;;7.23;3.23;;;;;;;24.12;46.44;101107.88;5044540;28;20410;-75
2023/06/19 05:35:21;;;;;;;9.25;3.08;;;;;;;24.23;46.00;101112.34;5048333;28;20732;-77
2023/06/19 05:37:47;;;;;;;5.67;3.17;;;;;;;24.58;45.66;101103.03;5043128;28;21103;-76
2023/06/19 05:40:13;;;;;;;6.20;3.10;;;;;;;24.47;45.51;101101.22;5052542;28;20861;-75
2023/06/19 05:42:40;;;;;;;4.93;3.00;;;;;;;24.54;45.01;101099.19;5043108;28;20784;-76
2023/06/19 05:45:06;;;;;;;5.87;2.90;;;;;;;24.49;44.90;101112.63;5034518;28;20402;-75
2023/06/19 05:47:31;;;;;;;4.00;2.50;;;;;;;24.50;44.76;101108.88;5045339;28;20446;-75
2023/06/19 05:49:57;;;;;;;5.38;3.25;;;;;;;24.60;44.66;101112.53;5043651;28;20444;-78
2023/06/19 05:52:23;;;;;;;4.80;2.88;;;;;;;24.78;44.35;101118.69;5038380;28;20484;-76
2023/06/19 05:54:49;;;;;;;4.82;2.70;;;;;;;24.39;44.94;101122.28;5045821;28;20403;-77
2023/06/19 05:57:20;;;;;;;6.60;3.10;;;;;;;24.61;45.00;101129.63;5042985;28;20391;-76
2023/06/19 05:59:47;;;;;;;5.55;3.13;;;;;;;24.68;44.67;101118.59;5046392;28;20729;-78
2023/06/19 06:02:12;;;;;;;5.20;2.88;;;;;;;24.89;43.95;101123.16;5042736;28;20393;-75
2023/06/19 06:04:38;;;;;;;6.37;3.20;;;;;;;24.80;44.01;101127.41;5024837;28;20481;-75
2023/06/19 06:07:03;;;;;;;6.50;2.73;;;;;;;24.87;43.94;101129.91;5024990;28;20437;-77
2023/06/19 06:09:30;;;;;;;5.68;2.90;;;;;;;24.86;43.92;101128.25;5053444;28;20884;-76
2023/06/19 06:11:56;;;;;;;5.00;3.10;;;;;;;25.05;43.37;101132.25;5032476;28;20409;-77
2023/06/19 06:14:21;;;;;;;4.85;2.88;;;;;;;24.99;43.58;101125.13;5048890;28;20894;-75
2023/06/19 06:16:47;;;;;;;5.30;3.30;;;;;;;25.29;43.14;101127.34;5050074;28;20482;-75
2023/06/19 06:19:12;;;;;;;7.43;3.50;;;;;;;25.54;43.25;101120.47;5046734;28;20810;-76
2023/06/19 06:21:38;;;;;;;4.07;3.20;;;;;;;25.75;43.03;101132.31;5044340;28;20398;-76
2023/06/19 06:24:04;;;;;;;5.22;3.55;;;;;;;25.76;42.72;101117.63;5045255;28;20396;-75
2023/06/19 06:26:29;;;;;;;7.72;3.72;;;;;;;25.79;42.53;101110.88;5047573;28;20396;-77
2023/06/19 06:28:55;;;;;;;5.40;2.80;;;;;;;25.80;43.10;101124.16;5047316;28;20408;-77
2023/06/19 06:31:22;;;;;;;4.50;3.33;;;;;;;26.00;42.66;101115.38;5041573;28;20390;-77
2023/06/19 06:33:48;;;;;;;4.10;3.00;;;;;;;25.94;42.37;101130.81;5041169;28;20395;-76
2023/06/19 06:36:17;;;;;;;4.10;2.90;;;;;;;26.00;42.31;101131.69;5043044;28;20384;-76
2023/06/19 06:38:42;;;;;;;5.15;3.33;;;;;;;26.17;42.41;101120.63;5037597;28;20417;-75
2023/06/19 06:41:08;;;;;;;6.37;3.50;;;;;;;26.40;42.48;101124.78;5042441;28;20431;-76
2023/06/19 06:43:33;;;;;;;6.65;3.30;;;;;;;26.55;41.82;101128.66;5038623;28;20818;-75
2023/06/19 06:45:59;;;;;;;5.80;3.03;;;;;;;26.61;41.43;101109.38;5049740;28;20903;-76
2023/06/19 06:48:25;;;;;;;6.93;3.10;;;;;;;26.66;40.92;101122.19;5044854;28;20970;-76
2023/06/19 06:50:51;;;;;;;6.00;3.00;;;;;;;26.84;40.91;101120.84;5047716;28;20406;-77
2023/06/19 06:53:16;;;;;;;6.17;2.80;;;;;;;26.98;40.22;101127.41;5044947;28;20402;-76
2023/06/19 06:55:41;;;;;;;6.03;3.47;;;;;;;26.92;40.40;101124.94;5040493;28;20398;-77
2023/06/19 06:58:07;;;;;;;5.53;2.92;;;;;;;27.15;40.06;101118.97;5050462;28;20402;-76
2023/06/19 07:00:32;;;;;;;5.00;2.90;;;;;;;27.21;39.47;101122.53;5040923;28;20743;-75
2023/06/19 07:02:58;;;;;;;4.67;2.70;;;;;;;27.32;39.25;101128.84;5040075;28;20399;-75
2023/06/19 07:05:23;;;;;;;5.27;3.20;;;;;;;27.38;39.03;101125.00;5039261;28;20427;-75
2023/06/19 07:07:49;;;;;;;4.28;2.83;;;;;;;27.44;39.19;101121.19;5028453;28;20386;-76
2023/06/19 07:10:14;;;;;;;5.80;2.95;;;;;;;27.36;38.13;101119.84;5040237;28;20401;-76
2023/06/19 07:12:48;;;;;;;13.27;10.27;;;;;;;27.56;37.77;101129.91;5041655;28;20476;-76
2023/06/19 07:15:14;;;;;;;6.93;3.00;;;;;;;27.21;37.94;101128.78;5042610;28;20741;-75
2023/06/19 07:17:39;;;;;;;4.10;2.90;;;;;;;27.53;38.74;101126.91;5048565;28;20412;-75
2023/06/19 07:20:06;;;;;;;3.60;2.70;;;;;;;27.43;37.29;101123.09;5048124;28;20475;-76
2023/06/19 07:22:33;;;;;;;4.55;2.83;;;;;;;27.41;37.44;101127.19;5051803;28;20485;-77
2023/06/19 07:24:58;;;;;;;6.07;2.92;;;;;;;27.57;37.38;101123.38;5033708;28;20405;-78
2023/06/19 07:27:27;;;;;;;6.20;2.90;;;;;;;27.56;36.94;101119.00;5046749;28;20480;-77
2023/06/19 07:29:53;;;;;;;7.47;3.60;;;;;;;27.77;37.02;101125.25;5043584;28;20413;-76
2023/06/19 07:32:19;;;;;;;5.90;3.15;;;;;;;27.97;36.21;101126.31;5047143;28;20423;-77
2023/06/19 07:34:45;;;;;;;5.43;3.10;;;;;;;27.92;36.01;101124.41;5026746;28;21678;-77
2023/06/19 07:37:17;;;;;;;5.13;3.10;;;;;;;27.78;36.21;101123.31;5036192;28;20405;-77
2023/06/19 07:39:44;;;;;;;5.38;3.00;;;;;;;27.99;35.13;101115.94;5047258;28;20399;-76
2023/06/19 07:42:10;;;;;;;3.50;2.65;;;;;;;27.96;33.86;101127.41;5052286;28;20389;-77
2023/06/19 07:44:36;;;;;;;5.38;3.08;;;;;;;27.94;34.79;101124.94;5041857;28;20458;-75
2023/06/19 07:47:01;;;;;;;4.97;2.90;;;;;;;28.19;34.57;101113.16;5049818;28;20395;-77
2023/06/19 07:49:27;;;;;;;5.05;2.90;;;;;;;28.25;35.27;101116.66;5048857;28;20598;-75
2023/06/19 07:51:54;;;;;;;4.97;3.30;;;;;;;28.55;35.05;101125.84;5053366;28;20383;-76
2023/06/19 07:54:19;;;;;;;4.28;3.10;;;;;;;28.60;35.11;101126.63;5052915;28;20381;-75
2023/06/19 07:56:45;;;;;;;5.23;2.87;;;;;;;28.50;35.44;101126.63;5047660;28;20389;-76
2023/06/19 07:59:11;;;;;;;5.53;2.97;;;;;;;28.65;35.14;101128.50;5049524;28;20388;-75
2023/06/19 08:01:36;;;;;;;4.97;2.95;;;;;;;28.63;35.16;101129.88;5053765;28;20380;-76
2023/06/19 08:04:02;;;;;;;4.13;2.60;;;;;;;28.63;34.62;101127.16;5062927;28;20398;-75
2023/06/19 08:06:27;;;;;;;3.70;2.60;;;;;;;28.78;34.76;101121.63;5057899;28;20865;-76
2023/06/19 08:08:53;;;;;;;3.03;2.60;;;;;;;28.66;34.67;101121.13;5051006;28;20501;-76
2023/06/19 08:11:18;;;;;;;4.13;2.90;;;;;;;28.72;34.78;101128.19;5055535;28;20437;-76
2023/06/19 08:13:44;;;;;;;4.53;2.83;;;;;;;28.72;34.38;101128.19;5049795;28;20462;-76
2023/06/19 08:16:10;;;;;;;5.78;3.00;;;;;;;28.82;34.11;101121.88;5055139;28;20501;-76
2023/06/19 08:18:36;;;;;;;3.75;2.80;;;;;;;28.91;33.22;101126.41;5059449;28;20508;-77
2023/06/19 08:21:01;;;;;;;3.88;2.70;;;;;;;28.85;33.65;101130.28;5052614;28;20552;-77
2023/06/19 08:23:27;;;;;;;5.53;3.00;;;;;;;28.77;33.54;101131.72;5052801;28;20730;-77
2023/06/19 08:25:52;;;;;;;4.67;2.90;;;;;;;29.08;33.89;101126.03;5053439;28;20745;-76
2023/06/19 08:28:17;;;;;;;5.60;2.90;;;;;;;29.14;32.03;101130.38;5051892;28;20480;-76
2023/06/19 08:30:45;;;;;;;4.00;2.70;;;;;;;29.08;31.28;101134.22;5052674;28;20518;-75
2023/06/19 08:33:12;;;;;;;5.68;3.15;;;;;;;29.10;30.74;101133.94;5041760;28;20507;-75
2023/06/19 08:35:38;;;;;;;4.32;2.80;;;;;;;29.37;31.54;101136.22;5037519;28;20933;-78
2023/06/19 08:38:03;;;;;;;4.93;2.85;;;;;;;29.33;30.86;101135.97;5052352;28;20385;-77
2023/06/19 08:40:29;;;;;;;5.30;2.80;;;;;;;29.27;31.93;101126.19;5052000;28;21085;-76
2023/06/19 08:42:55;;;;;;;5.50;3.07;;;;;;;29.16;29.83;101125.44;5052540;28;20730;-77
2023/06/19 08:45:21;;;;;;;7.55;3.30;;;;;;;29.38;30.57;101126.09;5049463;28;20806;-77
2023/06/19 08:47:48;;;;;;;6.40;3.30;;;;;;;29.84;30.76;101123.75;5050756;28;20734;-77
2023/06/19 08:50:15;;;;;;;6.22;3.03;;;;;;;29.77;31.26;101126.03;5045699;28;20761;-77
2023/06/19 08:52:41;;;;;;;3.78;2.50;;;;;;;29.24;29.84;101121.28;5033245;28;20397;-76
2023/06/19 08:55:07;;;;;;;5.93;2.77;;;;;;;29.42;30.57;101122.50;5047942;28;20415;-76
2023/06/19 08:57:34;;;;;;;5.93;3.03;;;;;;;29.38;31.53;101126.91;5062103;28;20463;-76
2023/06/19 08:59:59;;;;;;;3.58;2.80;;;;;;;29.38;31.16;101126.09;5018940;28;20394;-76
2023/06/19 09:02:27;;;;;;;4.97;2.58;;;;;;;29.27;30.83;101120.72;5037497;28;20926;-77
2023/06/19 09:04:52;;;;;;;5.57;2.78;;;;;;;29.55;30.53;101115.56;5049014;28;20385;-77
2023/06/19 09:07:18;;;;;;;3.07;2.50;;;;;;;29.61;29.93;101108.94;5042810;28;20391;-77
2023/06/19 09:09:47;;;;;;;5.20;2.63;;;;;;;29.47;29.47;101124.38;5051874;28;20480;-76
2023/06/19 09:12:14;;;;;;;5.03;3.15;;;;;;;29.50;30.15;101123.81;5051032;28;20895;-77
2023/06/19 09:14:41;;;;;;;4.40;2.60;;;;;;;29.45;30.12;101123.84;5046646;28;20384;-77
2023/06/19 09:17:10;;;;;;;4.30;2.20;;;;;;;29.22;29.85;101111.75;5051122;28;20419;-76
2023/06/19 09:19:36;;;;;;;5.65;2.80;;;;;;;29.30;30.51;101111.97;5050357;28;20396;-75
2023/06/19 09:22:01;;;;;;;5.63;2.60;;;;;;;29.52;30.86;101110.69;5049970;28;20404;-75
2023/06/19 09:24:37;;;;;;;6.63;2.90;;;;;;;29.43;30.58;101107.75;5050514;28;20396;-76
2023/06/19 09:27:13;;;;;;;4.38;2.50;;;;;;;29.63;29.48;101111.38;5052616;28;20622;-74
2023/06/19 09:29:40;;;;;;;7.05;3.15;;;;;;;29.98;29.93;101099.28;5047480;28;20894;-76
2023/06/19 09:32:28;;;;;;;4.28;2.42;;;;;;;29.53;29.70;101101.38;5054209;28;20493;-77
2023/06/19 09:34:57;;;;;;;3.47;2.70;;;;;;;29.49;28.36;101106.59;5045077;28;20758;-78
2023/06/19 09:37:26;;;;;;;3.65;2.60;;;;;;;28.87;29.37;101102.72;5049200;28;20397;-76
2023/06/19 09:39:57;;;;;;;4.67;2.80;;;;;;;29.38;29.47;101098.78;5054516;28;20859;-76
2023/06/19 09:42:31;;;;;;;4.40;2.67;;;;;;;29.61;29.64;101103.47;5065691;28;20389;-77
2023/06/19 09:45:02;;;;;;;2.88;2.58;;;;;;;29.65;30.05;101098.25;5051678;28;20403;-77
2023/06/19 09:47:39;;;;;;;3.95;2.70;;;;;;;29.77;29.49;101103.38;5048366;28;20392;-76
2023/06/19 09:50:06;;;;;;;6.20;3.03;;;;;;;29.84;29.82;101099.16;5042563;28;20423;-75
2023/06/19 09:52:33;;;;;;;8.20;3.33;;;;;;;29.61;29.00;101099.94;5048485;28;20400;-76
2023/06/19 09:55:04;;;;;;;5.65;2.67;;;;;;;29.36;28.63;101091.69;5045192;28;20399;-77
2023/06/19 09:57:34;;;;;;;5.53;3.00;;;;;;;29.53;29.31;101084.97;5047931;28;20447;-76
2023/06/19 10:00:10;;;;;;;5.15;2.75;;;;;;;29.84;29.48;101096.44;5050040;28;20369;-75
2023/06/19 10:02:36;;;;;;;5.70;3.00;;;;;;;29.78;29.44;101086.66;5050286;28;20381;-76
2023/06/19 10:05:01;;;;;;;6.38;2.90;;;;;;;29.89;29.18;101099.13;5050464;28;20832;-77
2023/06/19 10:07:34;;;;;;;7.90;3.00;;;;;;;29.66;28.51;101088.97;5050600;28;20889;-75
2023/06/19 10:10:01;;;;;;;5.65;3.08;;;;;;;29.67;29.06;101077.72;5048983;28;20408;-75
2023/06/19 10:12:40;;;;;;;4.47;2.60;;;;;;;29.88;28.42;101083.81;5045329;28;20380;-75
2023/06/19 10:15:23;;;;;;;4.80;3.00;;;;;;;29.32;29.34;101087.09;5049471;28;20881;-75
2023/06/19 10:17:53;;;;;;;3.60;2.63;;;;;;;29.50;28.59;101091.84;5049936;28;20424;-77
2023/06/19 10:20:33;;;;;;;6.00;2.80;;;;;;;29.61;28.92;101080.81;5050233;28;20484;-77
2023/06/19 10:23:03;;;;;;;5.07;3.00;;;;;;;29.53;28.60;101091.28;5049590;28;20411;-77
2023/06/19 10:25:37;;;;;;;4.40;2.70;;;;;;;29.76;28.59;101086.13;5048361;28;20500;-76
2023/06/19 10:28:06;;;;;;;3.27;2.43;;;;;;;29.35;28.44;101094.69;5048754;28;20429;-77
2023/06/19 10:30:34;;;;;;;4.93;2.87;;;;;;;29.79;28.33;101091.03;5050293;28;20420;-76
2023/06/19 10:33:03;;;;;;;6.10;2.83;;;;;;;29.24;28.49;101079.53;5048987;28;20405;-77
2023/06/19 10:35:40;;;;;;;4.13;2.90;;;;;;;29.59;28.86;101069.38;5044159;28;20392;-76
2023/06/19 10:38:10;;;;;;;3.53;2.80;;;;;;;29.80;28.78;101078.16;5034158;28;20450;-76
2023/06/19 10:40:37;;;;;;;3.53;2.55;;;;;;;29.47;27.90;101075.22;5051277;28;20887;-76
2023/06/19 10:43:04;;;;;;;4.03;2.85;;;;;;;29.47;28.79;101072.47;5051774;28;20396;-77
2023/06/19 10:45:29;;;;;;;5.38;2.80;;;;;;;29.74;28.38;101071.91;5040589;28;20407;-76
2023/06/19 10:47:55;;;;;;;4.93;2.63;;;;;;;29.76;28.11;101072.47;5050262;28;20388;-76
2023/06/19 10:50:22;;;;;;;6.30;3.03;;;;;;;30.07;27.92;101072.09;5050761;28;20400;-75
2023/06/19 10:52:48;;;;;;;3.63;2.83;;;;;;;29.97;28.21;101056.66;5050200;28;20381;-76
2023/06/19 10:55:14;;;;;;;6.28;3.20;;;;;;;29.81;28.18;101066.16;5049724;28;20383;-76
2023/06/19 10:57:44;;;;;;;4.68;2.97;;;;;;;30.16;27.92;101064.91;5050364;28;20410;-77
2023/06/19 11:00:12;;;;;;;3.97;2.65;;;;;;;29.93;28.30;101069.28;5049963;28;20736;-77
2023/06/19 11:02:40;;;;;;;4.65;2.92;;;;;;;29.71;27.73;101056.94;5038115;28;20396;-76
2023/06/19 11:05:06;;;;;;;3.97;2.97;;;;;;;30.14;28.06;101069.81;5051277;28;20423;-77
2023/06/19 11:07:32;;;;;;;4.35;2.63;;;;;;;30.23;27.34;101062.63;5043955;28;20393;-75
2023/06/19 11:09:58;;;;;;;3.30;2.70;;;;;;;30.16;27.21;101059.44;5049737;28;20412;-77
2023/06/19 11:12:23;;;;;;;4.30;2.38;;;;;;;30.23;27.34;101065.34;5036265;28;20399;-77
2023/06/19 11:14:49;;;;;;;4.93;2.73;;;;;;;29.98;27.24;101060.19;5052856;28;20396;-75
2023/06/19 11:17:18;;;;;;;5.68;2.70;;;;;;;29.97;27.75;101059.38;5055022;28;20425;-76
2023/06/19 11:19:44;;;;;;;4.13;2.92;;;;;;;30.30;27.84;101049.34;5054185;28;20385;-76
2023/06/19 11:22:10;;;;;;;5.50;2.70;;;;;;;30.39;27.76;101054.22;5055865;28;20385;-77